Time;durP1;ratioP1;P1;durP2;ratioP2;P2;SDS_P1;SDS_P2;PMS_P1;PMS_P2;Temp;Humidity;BMP_temperature;BMP_pressure;BME280_temperature;BME280_humidity;BME280_pressure;Samples;Min_cycle;Max_cycle;Signal;HPM_P1;HPM_P2
2022/01/10 00:00:30;;;;;;;13.65;9.80;;;;;;;;;;5123876;28;20190;-68
2022/01/10 00:02:57;;;;;;;13.18;9.65;;;;;;;;;;5123832;28;20207;-68
2022/01/10 00:05:24;;;;;;;15.80;10.10;;;;;;;;;;5122845;28;20195;-68
2022/01/10 00:07:51;;;;;;;13.60;9.82;;;;;;;;;;5123688;28;20198;-68
2022/01/10 00:10:17;;;;;;;11.85;10.13;;;;;;;;;;5123255;28;20230;-68
2022/01/10 00:12:44;;;;;;;14.63;10.85;;;;;;;;;;5123305;28;20579;-68
2022/01/10 00:15:15;;;;;;;12.20;9.73;;;;;;;;;;5122612;28;20239;-68
2022/01/10 00:17:42;;;;;;;15.05;9.57;;;;;;;;;;5123267;28;20266;-68
2022/01/10 00:20:11;;;;;;;13.57;9.75;;;;;;;;;;5123054;28;20207;-68
2022/01/10 00:22:39;;;;;;;12.75;9.32;;;;;;;;;;5123070;28;20233;-68
2022/01/10 00:25:08;;;;;;;9.63;8.63;;;;;;;;;;5122704;28;20183;-68
2022/01/10 00:27:34;;;;;;;13.07;8.82;;;;;;;;;;5123289;28;20513;-68
2022/01/10 00:30:01;;;;;;;9.98;9.05;;;;;;;;;;5122871;28;20219;-68
2022/01/10 00:32:29;;;;;;;11.50;9.15;;;;;;;;;;5123011;28;20232;-68
2022/01/10 00:34:56;;;;;;;12.82;9.68;;;;;;;;;;5122592;28;20195;-68
2022/01/10 00:37:23;;;;;;;15.60;9.52;;;;;;;;;;5122831;28;20198;-68
2022/01/10 00:39:49;;;;;;;10.43;9.02;;;;;;;;;;5122874;27;20198;-68
2022/01/10 00:42:16;;;;;;;11.57;9.55;;;;;;;;;;5123111;28;20195;-68
2022/01/10 00:44:49;;;;;;;11.63;9.25;;;;;;;;;;5122475;28;20401;-68
2022/01/10 00:47:16;;;;;;;10.63;9.00;;;;;;;;;;5122615;28;20528;-68
2022/01/10 00:49:45;;;;;;;12.63;8.80;;;;;;;;;;5122660;28;20214;-68
2022/01/10 00:52:12;;;;;;;12.35;8.90;;;;;;;;;;5122831;28;20195;-68
2022/01/10 00:54:39;;;;;;;10.90;7.97;;;;;;;;;;5122392;28;20227;-68
2022/01/10 00:57:06;;;;;;;11.10;8.75;;;;;;;;;;5122316;28;20203;-68
2022/01/10 00:59:32;;;;;;;10.45;8.27;;;;;;;;;;5122420;28;20191;-68
2022/01/10 01:01:59;;;;;;;11.95;8.52;;;;;;;;;;5122813;28;20223;-68
2022/01/10 01:04:26;;;;;;;9.88;8.88;;;;;;;;;;5122322;28;20234;-68
2022/01/10 01:06:54;;;;;;;10.02;8.60;;;;;;;;;;5122709;28;20360;-68
2022/01/10 01:09:26;;;;;;;10.85;9.75;;;;;;;;;;5122669;28;20223;-68
2022/01/10 01:14:55;;;;;;;11.52;9.65;;;;;;;;;;5111109;28;20202;-68
2022/01/10 01:17:46;;;;;;;15.27;10.05;;;;;;;;;;5122768;28;20240;-68
2022/01/10 01:20:29;;;;;;;13.70;10.05;;;;;;;;;;5122411;28;20203;-68
2022/01/10 01:25:42;;;;;;;11.88;9.65;;;;;;;;;;5121919;28;20222;-68
2022/01/10 01:28:08;;;;;;;17.33;10.52;;;;;;;;;;5122199;28;20199;-68
2022/01/10 01:30:35;;;;;;;12.85;10.45;;;;;;;;;;5122156;28;20232;-68
2022/01/10 01:33:01;;;;;;;12.50;9.68;;;;;;;;;;5122656;28;20497;-68
2022/01/10 01:35:28;;;;;;;15.30;10.90;;;;;;;;;;5121736;28;20199;-68
2022/01/10 01:37:55;;;;;;;13.88;10.07;;;;;;;;;;5122411;28;20515;-68
2022/01/10 01:40:27;;;;;;;16.58;11.07;;;;;;;;;;5122060;28;20192;-68
2022/01/10 01:42:53;;;;;;;14.48;10.32;;;;;;;;;;5122088;28;20522;-68
2022/01/10 01:45:19;;;;;;;12.68;9.95;;;;;;;;;;5122113;28;20222;-68
2022/01/10 01:47:47;;;;;;;14.43;10.73;;;;;;;;;;5122148;28;20406;-68
2022/01/10 01:50:13;;;;;;;14.15;9.02;;;;;;;;;;5122074;28;20215;-68
2022/01/10 01:52:40;;;;;;;12.48;9.13;;;;;;;;;;5122174;28;20195;-68
2022/01/10 01:55:07;;;;;;;13.13;8.93;;;;;;;;;;5121435;28;20195;-68
2022/01/10 01:57:35;;;;;;;10.23;9.18;;;;;;;;;;5122286;28;20262;-68
2022/01/10 02:00:02;;;;;;;11.75;8.85;;;;;;;;;;5122188;28;20214;-68
2022/01/10 02:02:28;;;;;;;12.00;9.68;;;;;;;;;;5122097;28;20256;-68
2022/01/10 02:04:54;;;;;;;11.25;8.77;;;;;;;;;;5121401;28;20206;-68
2022/01/10 02:07:21;;;;;;;9.32;8.38;;;;;;;;;;5122074;28;20385;-68
2022/01/10 02:09:48;;;;;;;10.07;8.18;;;;;;;;;;5124470;28;20226;-68
2022/01/10 02:12:14;;;;;;;11.73;7.97;;;;;;;;;;5125959;28;20270;-68
2022/01/10 02:14:46;;;;;;;11.35;8.77;;;;;;;;;;5124900;28;20201;-68
2022/01/10 02:17:16;;;;;;;13.75;8.55;;;;;;;;;;5125649;28;20345;-68
2022/01/10 02:19:54;;;;;;;11.73;8.07;;;;;;;;;;5118584;28;20494;-68
2022/01/10 02:22:20;;;;;;;10.90;8.38;;;;;;;;;;5125010;28;20195;-68
2022/01/10 02:24:47;;;;;;;12.05;8.70;;;;;;;;;;5124374;28;20213;-68
2022/01/10 02:27:13;;;;;;;9.35;7.75;;;;;;;;;;5125187;28;20202;-68
2022/01/10 02:29:40;;;;;;;9.30;8.27;;;;;;;;;;5124607;28;20214;-68
2022/01/10 02:32:06;;;;;;;11.02;8.43;;;;;;;;;;5125368;28;20195;-68
2022/01/10 02:34:33;;;;;;;11.63;8.52;;;;;;;;;;5125011;28;20217;-68
2022/01/10 02:37:01;;;;;;;10.80;8.75;;;;;;;;;;5125247;28;20209;-68
2022/01/10 02:39:27;;;;;;;13.75;9.63;;;;;;;;;;5124655;28;20278;-68
2022/01/10 02:41:53;;;;;;;12.02;9.40;;;;;;;;;;5125220;28;20412;-68
2022/01/10 02:44:20;;;;;;;14.82;9.65;;;;;;;;;;5125149;28;20194;-68
2022/01/10 02:46:47;;;;;;;12.27;10.10;;;;;;;;;;5124156;28;20494;-68
2022/01/10 02:49:14;;;;;;;14.98;10.40;;;;;;;;;;5123166;28;20219;-68
2022/01/10 02:51:41;;;;;;;14.82;10.60;;;;;;;;;;5124878;28;20195;-68
2022/01/10 02:54:08;;;;;;;13.98;9.68;;;;;;;;;;5124788;28;20202;-68
2022/01/10 02:56:35;;;;;;;12.07;9.93;;;;;;;;;;5124315;28;20195;-68
2022/01/10 02:59:01;;;;;;;14.18;11.02;;;;;;;;;;5124171;28;20197;-68
2022/01/10 03:01:28;;;;;;;12.07;10.20;;;;;;;;;;5124520;28;20218;-68
2022/01/10 03:03:54;;;;;;;11.95;10.32;;;;;;;;;;5124889;28;20517;-68
2022/01/10 03:06:21;;;;;;;15.52;10.77;;;;;;;;;;5123892;28;20199;-68
2022/01/10 03:08:47;;;;;;;13.05;10.52;;;;;;;;;;5124395;28;20195;-68
2022/01/10 03:11:15;;;;;;;11.82;9.85;;;;;;;;;;5124141;28;20480;-68
2022/01/10 03:13:41;;;;;;;12.48;9.93;;;;;;;;;;5124663;28;20486;-68
2022/01/10 03:16:08;;;;;;;12.55;10.13;;;;;;;;;;5123670;28;20195;-68
2022/01/10 03:18:34;;;;;;;15.45;11.00;;;;;;;;;;5124214;28;20344;-68
2022/01/10 03:21:00;;;;;;;11.90;10.65;;;;;;;;;;5123159;28;20206;-68
2022/01/10 03:23:27;;;;;;;11.20;10.00;;;;;;;;;;5124543;28;20203;-68
2022/01/10 03:25:53;;;;;;;10.98;9.82;;;;;;;;;;5123713;28;20534;-68
2022/01/10 03:28:21;;;;;;;11.02;9.57;;;;;;;;;;5124356;28;20195;-68
2022/01/10 03:30:47;;;;;;;13.82;9.75;;;;;;;;;;5123691;28;20230;-68
2022/01/10 03:33:14;;;;;;;13.13;9.85;;;;;;;;;;5124285;28;20218;-68
2022/01/10 03:35:41;;;;;;;14.23;9.80;;;;;;;;;;5123712;28;20502;-68
2022/01/10 03:38:07;;;;;;;12.35;9.13;;;;;;;;;;5123937;28;20202;-68
2022/01/10 03:40:34;;;;;;;9.93;8.93;;;;;;;;;;5124016;28;20237;-67
2022/01/10 03:43:00;;;;;;;10.35;9.30;;;;;;;;;;5123647;28;20202;-68
2022/01/10 03:45:28;;;;;;;11.80;8.85;;;;;;;;;;5123080;28;20420;-68
2022/01/10 03:47:54;;;;;;;10.95;8.73;;;;;;;;;;5123859;28;20488;-68
2022/01/10 03:50:21;;;;;;;11.13;9.32;;;;;;;;;;5123776;28;20526;-68
2022/01/10 03:52:53;;;;;;;12.60;10.00;;;;;;;;;;5123327;28;20200;-68
2022/01/10 03:55:20;;;;;;;11.38;9.43;;;;;;;;;;5124502;28;20202;-67
2022/01/10 03:57:46;;;;;;;10.82;9.73;;;;;;;;;;5125609;28;20382;-67
2022/01/10 04:00:13;;;;;;;10.10;9.20;;;;;;;;;;5125490;28;20191;-67
2022/01/10 04:02:45;;;;;;;11.18;8.85;;;;;;;;;;5124986;28;20217;-67
2022/01/10 04:05:11;;;;;;;12.05;9.55;;;;;;;;;;5123440;28;20202;-66
2022/01/10 04:07:38;;;;;;;10.13;8.45;;;;;;;;;;5123875;28;20203;-66
2022/01/10 04:10:04;;;;;;;12.20;8.18;;;;;;;;;;5123416;28;20261;-68
2022/01/10 04:12:31;;;;;;;9.10;8.20;;;;;;;;;;5122923;28;20564;-68
2022/01/10 04:14:57;;;;;;;12.15;10.35;;;;;;;;;;5122798;28;20238;-67
2022/01/10 04:17:24;;;;;;;11.35;9.73;;;;;;;;;;5123411;28;20426;-66
2022/01/10 04:19:51;;;;;;;12.27;10.65;;;;;;;;;;5122199;28;20244;-67
2022/01/10 04:22:18;;;;;;;13.63;10.73;;;;;;;;;;5123315;28;20195;-68
2022/01/10 04:24:44;;;;;;;13.02;10.60;;;;;;;;;;5122606;28;20202;-67
2022/01/10 04:27:11;;;;;;;14.10;10.82;;;;;;;;;;5123078;28;20391;-65
2022/01/10 04:29:37;;;;;;;14.27;11.40;;;;;;;;;;5122198;28;20218;-66
2022/01/10 04:32:04;;;;;;;13.63;10.43;;;;;;;;;;5123329;28;20201;-65
2022/01/10 04:34:31;;;;;;;12.20;10.25;;;;;;;;;;5122591;28;20525;-65
2022/01/10 04:36:58;;;;;;;14.50;9.88;;;;;;;;;;5123055;28;20195;-66
2022/01/10 04:39:25;;;;;;;11.38;9.85;;;;;;;;;;5124126;28;20413;-66
2022/01/10 04:41:51;;;;;;;11.45;9.82;;;;;;;;;;5124481;28;20195;-67
2022/01/10 04:44:18;;;;;;;12.48;10.45;;;;;;;;;;5124384;28;20389;-67
2022/01/10 04:46:44;;;;;;;10.52;8.73;;;;;;;;;;5122510;28;20495;-65
2022/01/10 04:49:21;;;;;;;11.82;9.68;;;;;;;;;;5121829;28;20207;-65
2022/01/10 04:51:47;;;;;;;13.35;9.90;;;;;;;;;;5122673;28;20357;-65
2022/01/10 04:54:15;;;;;;;14.10;9.43;;;;;;;;;;5122964;28;20198;-65
2022/01/10 04:56:42;;;;;;;11.52;10.00;;;;;;;;;;5122249;28;20206;-65
2022/01/10 04:59:10;;;;;;;12.77;10.70;;;;;;;;;;5122408;28;20203;-64
2022/01/10 05:01:37;;;;;;;11.23;10.15;;;;;;;;;;5122135;28;20400;-65
2022/01/10 05:04:03;;;;;;;15.18;11.30;;;;;;;;;;5122531;28;20195;-65
2022/01/10 05:06:30;;;;;;;12.70;11.30;;;;;;;;;;5122489;28;20194;-65
2022/01/10 05:08:56;;;;;;;17.85;11.88;;;;;;;;;;5122553;28;20421;-65
2022/01/10 05:11:24;;;;;;;14.10;11.90;;;;;;;;;;5122310;28;20219;-65
2022/01/10 05:13:50;;;;;;;13.27;11.05;;;;;;;;;;5122389;28;20195;-65
2022/01/10 05:16:18;;;;;;;14.00;11.70;;;;;;;;;;5122072;28;20202;-65
2022/01/10 05:18:45;;;;;;;13.57;12.07;;;;;;;;;;5122757;28;20370;-65
2022/01/10 05:21:13;;;;;;;16.35;12.05;;;;;;;;;;5122228;28;20198;-65
2022/01/10 05:23:39;;;;;;;15.13;11.80;;;;;;;;;;5122726;28;20194;-65
2022/01/10 05:26:06;;;;;;;14.75;11.75;;;;;;;;;;5121973;28;20210;-65
2022/01/10 05:28:34;;;;;;;16.35;11.93;;;;;;;;;;5122627;28;20236;-65
2022/01/10 05:31:01;;;;;;;13.98;11.55;;;;;;;;;;5121943;28;20211;-65
2022/01/10 05:33:28;;;;;;;14.02;11.15;;;;;;;;;;5122089;28;20237;-65
2022/01/10 05:36:02;;;;;;;12.48;11.25;;;;;;;;;;5121614;28;20206;-65
2022/01/10 05:38:28;;;;;;;12.60;11.27;;;;;;;;;;5122316;28;20396;-65
2022/01/10 05:40:55;;;;;;;14.27;12.07;;;;;;;;;;5121959;28;20191;-65
2022/01/10 05:43:21;;;;;;;16.55;12.27;;;;;;;;;;5121856;28;20206;-65
2022/01/10 05:45:49;;;;;;;16.98;12.57;;;;;;;;;;5125564;28;20231;-65
2022/01/10 05:48:22;;;;;;;15.70;12.85;;;;;;;;;;5125987;28;20404;-65
2022/01/10 05:50:48;;;;;;;18.38;13.43;;;;;;;;;;5126095;28;20560;-65
2022/01/10 05:53:15;;;;;;;19.20;14.25;;;;;;;;;;5125546;28;20251;-67
2022/01/10 05:55:41;;;;;;;19.88;14.15;;;;;;;;;;5126842;28;20195;-68
2022/01/10 05:58:08;;;;;;;15.90;12.82;;;;;;;;;;5127318;28;20195;-68
2022/01/10 06:00:35;;;;;;;15.05;12.73;;;;;;;;;;5126974;28;20190;-68
2022/01/10 06:03:03;;;;;;;19.50;13.02;;;;;;;;;;5126500;28;20199;-68
2022/01/10 06:05:31;;;;;;;19.08;12.65;;;;;;;;;;5126727;28;20196;-68
2022/01/10 06:07:57;;;;;;;15.05;11.63;;;;;;;;;;5125801;28;20195;-68
2022/01/10 06:10:24;;;;;;;12.95;11.60;;;;;;;;;;5125543;28;20211;-68
2022/01/10 06:12:50;;;;;;;14.98;12.05;;;;;;;;;;5125386;28;20195;-68
2022/01/10 06:15:17;;;;;;;16.95;11.48;;;;;;;;;;5124810;28;20206;-68
2022/01/10 06:17:43;;;;;;;15.45;12.05;;;;;;;;;;5124988;28;20202;-68
2022/01/10 06:20:12;;;;;;;12.35;11.02;;;;;;;;;;5108650;27;20426;-68
2022/01/10 06:22:38;;;;;;;13.65;11.40;;;;;;;;;;5117341;28;20534;-68
2022/01/10 06:25:06;;;;;;;17.98;12.65;;;;;;;;;;5121958;27;20203;-68
2022/01/10 06:27:32;;;;;;;16.20;13.45;;;;;;;;;;5120344;27;20213;-67
2022/01/10 06:29:59;;;;;;;20.92;12.85;;;;;;;;;;5118613;28;20517;-68
2022/01/10 06:32:25;;;;;;;18.10;13.00;;;;;;;;;;5118333;28;20412;-67
2022/01/10 06:34:52;;;;;;;18.90;13.50;;;;;;;;;;5118652;28;20222;-69
2022/01/10 06:37:20;;;;;;;15.35;12.45;;;;;;;;;;5128549;27;20375;-69
2022/01/10 06:39:47;;;;;;;15.00;12.25;;;;;;;;;;5139430;27;20206;-67
2022/01/10 06:42:13;;;;;;;18.17;12.52;;;;;;;;;;5139694;27;20244;-70
2022/01/10 06:44:40;;;;;;;18.15;13.25;;;;;;;;;;5118452;28;20227;-70
2022/01/10 06:47:06;;;;;;;17.00;12.73;;;;;;;;;;5118835;28;20203;-69
2022/01/10 06:49:33;;;;;;;15.82;13.63;;;;;;;;;;5118615;28;20206;-69
2022/01/10 06:51:59;;;;;;;21.92;13.10;;;;;;;;;;5118434;28;20577;-70
2022/01/10 06:54:27;;;;;;;17.63;13.23;;;;;;;;;;5118154;28;20210;-70
2022/01/10 06:56:58;;;;;;;18.25;15.30;;;;;;;;;;5116727;28;20439;-59
2022/01/10 06:59:25;;;;;;;16.67;12.23;;;;;;;;;;5118183;28;20207;-58
2022/01/10 07:01:51;;;;;;;17.05;13.38;;;;;;;;;;5118402;28;20211;-58
2022/01/10 07:04:17;;;;;;;16.00;12.93;;;;;;;;;;5118125;28;20538;-59
2022/01/10 07:06:44;;;;;;;17.25;13.13;;;;;;;;;;5117891;28;20207;-58
2022/01/10 07:09:11;;;;;;;16.63;13.00;;;;;;;;;;5118209;28;20206;-60
2022/01/10 07:11:39;;;;;;;17.50;13.23;;;;;;;;;;5117584;28;20552;-56
2022/01/10 07:14:07;;;;;;;14.98;12.25;;;;;;;;;;5126528;27;20213;-57
2022/01/10 07:16:34;;;;;;;15.43;11.73;;;;;;;;;;5117933;28;20242;-59
2022/01/10 07:19:05;;;;;;;16.75;13.20;;;;;;;;;;5118072;28;20282;-58
2022/01/10 07:21:31;;;;;;;16.75;12.55;;;;;;;;;;5117322;28;20241;-57
2022/01/10 07:23:58;;;;;;;16.40;11.85;;;;;;;;;;5117824;28;20222;-58
2022/01/10 07:26:25;;;;;;;16.13;12.30;;;;;;;;;;5117157;28;20586;-59
2022/01/10 07:28:53;;;;;;;18.75;13.02;;;;;;;;;;5117759;28;20242;-59
2022/01/10 07:31:20;;;;;;;18.98;12.25;;;;;;;;;;5117473;28;20234;-58
2022/01/10 07:33:46;;;;;;;18.15;13.07;;;;;;;;;;5118180;28;20207;-59
2022/01/10 07:36:13;;;;;;;18.55;13.63;;;;;;;;;;5117076;28;20211;-60
2022/01/10 07:38:39;;;;;;;23.45;15.35;;;;;;;;;;5117615;28;20530;-57
2022/01/10 07:41:07;;;;;;;22.17;14.98;;;;;;;;;;5117379;28;20210;-60
2022/01/10 07:43:33;;;;;;;21.73;15.05;;;;;;;;;;5117846;28;20519;-58
2022/01/10 07:46:01;;;;;;;23.67;15.02;;;;;;;;;;5117000;28;20558;-58
2022/01/10 07:48:29;;;;;;;23.42;15.18;;;;;;;;;;5117517;28;20207;-58
2022/01/10 07:50:56;;;;;;;21.45;15.40;;;;;;;;;;5117140;28;20223;-58
2022/01/10 07:53:22;;;;;;;23.27;15.05;;;;;;;;;;5118388;28;20228;-60
2022/01/10 07:55:50;;;;;;;23.08;14.30;;;;;;;;;;5118618;28;20203;-57
2022/01/10 07:58:17;;;;;;;26.38;15.73;;;;;;;;;;5119672;28;20199;-61
2022/01/10 08:00:44;;;;;;;21.17;14.65;;;;;;;;;;5119121;28;20539;-59
2022/01/10 08:03:12;;;;;;;25.02;15.57;;;;;;;;;;5119519;28;20214;-59
2022/01/10 08:05:38;;;;;;;26.15;16.08;;;;;;;;;;5119002;28;20230;-58
2022/01/10 08:08:05;;;;;;;23.70;16.92;;;;;;;;;;5118777;28;20417;-59
2022/01/10 08:10:32;;;;;;;29.60;16.00;;;;;;;;;;5119383;28;20219;-59
2022/01/10 08:12:58;;;;;;;24.23;15.45;;;;;;;;;;5121763;27;20207;-58
2022/01/10 08:15:25;;;;;;;22.80;15.57;;;;;;;;;;5139472;27;20501;-58
2022/01/10 08:17:52;;;;;;;23.60;16.65;;;;;;;;;;5129165;27;20207;-58
2022/01/10 08:20:20;;;;;;;24.90;17.45;;;;;;;;;;5119192;28;20375;-58
2022/01/10 08:22:46;;;;;;;24.98;16.73;;;;;;;;;;5119612;28;20434;-58
2022/01/10 08:25:13;;;;;;;22.00;16.65;;;;;;;;;;5118751;28;20252;-57
2022/01/10 08:27:39;;;;;;;25.08;16.67;;;;;;;;;;5118787;28;20203;-59
2022/01/10 08:30:08;;;;;;;25.73;17.30;;;;;;;;;;5118770;28;20215;-59
2022/01/10 08:32:34;;;;;;;24.60;17.20;;;;;;;;;;5118426;28;20249;-59
2022/01/10 08:35:01;;;;;;;24.42;16.15;;;;;;;;;;5118253;28;20207;-60
2022/01/10 08:37:29;;;;;;;27.88;17.73;;;;;;;;;;5118525;28;20206;-58
2022/01/10 08:39:55;;;;;;;26.20;18.83;;;;;;;;;;5117969;28;20390;-58
2022/01/10 08:42:22;;;;;;;25.23;18.30;;;;;;;;;;5118722;28;20195;-59
2022/01/10 08:44:49;;;;;;;27.38;17.52;;;;;;;;;;5118762;28;20240;-59
2022/01/10 08:47:16;;;;;;;27.65;18.48;;;;;;;;;;5119276;28;20214;-60
2022/01/10 08:49:43;;;;;;;29.58;18.30;;;;;;;;;;5119054;28;20211;-60
2022/01/10 08:52:09;;;;;;;25.38;16.10;;;;;;;;;;5119867;28;20223;-60
2022/01/10 08:54:37;;;;;;;22.70;16.08;;;;;;;;;;5123771;27;20202;-58
2022/01/10 08:57:04;;;;;;;23.30;16.65;;;;;;;;;;5137331;27;20444;-60
2022/01/10 08:59:31;;;;;;;24.88;16.75;;;;;;;;;;5132188;27;20217;-59
2022/01/10 09:01:58;;;;;;;30.50;18.20;;;;;;;;;;5119140;28;20495;-57
2022/01/10 09:04:24;;;;;;;27.15;17.73;;;;;;;;;;5119898;28;20202;-59
2022/01/10 09:06:52;;;;;;;24.77;16.67;;;;;;;;;;5120135;28;20214;-57
2022/01/10 09:09:18;;;;;;;22.77;16.10;;;;;;;;;;5118076;28;20388;-60
2022/01/10 09:11:47;;;;;;;22.33;17.15;;;;;;;;;;5119482;28;20558;-62
2022/01/10 09:14:14;;;;;;;23.00;17.23;;;;;;;;;;5120922;28;20206;-60
2022/01/10 09:16:41;;;;;;;25.67;16.55;;;;;;;;;;5120811;28;20214;-60
2022/01/10 09:19:07;;;;;;;24.23;17.98;;;;;;;;;;5123443;28;20444;-60
2022/01/10 09:21:34;;;;;;;24.33;17.50;;;;;;;;;;5125108;28;20230;-58
2022/01/10 09:24:01;;;;;;;23.42;16.88;;;;;;;;;;5126194;28;20207;-59
2022/01/10 09:26:28;;;;;;;24.10;17.02;;;;;;;;;;5124141;28;20381;-59
2022/01/10 09:28:56;;;;;;;21.23;16.13;;;;;;;;;;5123246;28;20406;-60
2022/01/10 09:31:23;;;;;;;20.02;15.77;;;;;;;;;;5120505;28;20230;-60
2022/01/10 09:33:53;;;;;;;20.05;14.25;;;;;;;;;;5122642;28;20405;-60
2022/01/10 09:36:20;;;;;;;20.63;15.35;;;;;;;;;;5123129;28;20542;-59
2022/01/10 09:38:47;;;;;;;20.92;14.85;;;;;;;;;;5123640;28;20206;-58
2022/01/10 09:41:13;;;;;;;21.45;16.33;;;;;;;;;;5123682;28;20199;-59
2022/01/10 09:43:41;;;;;;;21.00;15.20;;;;;;;;;;5109751;28;20245;-60
2022/01/10 09:46:09;;;;;;;19.20;14.43;;;;;;;;;;5102339;28;20280;-58
2022/01/10 09:48:35;;;;;;;22.13;14.48;;;;;;;;;;5104015;28;20200;-58
2022/01/10 09:51:02;;;;;;;23.63;15.65;;;;;;;;;;5103746;28;20434;-57
2022/01/10 09:53:28;;;;;;;17.63;15.02;;;;;;;;;;5124792;28;20211;-56
2022/01/10 09:55:54;;;;;;;22.60;14.48;;;;;;;;;;5143915;27;20206;-58
2022/01/10 09:58:22;;;;;;;23.60;15.15;;;;;;;;;;5136997;27;20222;-60
2022/01/10 10:00:48;;;;;;;21.50;14.02;;;;;;;;;;5123460;28;20203;-59
2022/01/10 10:03:21;;;;;;;23.65;15.73;;;;;;;;;;5123638;28;20202;-59
2022/01/10 10:05:47;;;;;;;23.90;15.77;;;;;;;;;;5123219;28;20207;-58
2022/01/10 10:08:13;;;;;;;22.58;15.50;;;;;;;;;;5124029;28;20215;-58
2022/01/10 10:10:40;;;;;;;24.98;15.95;;;;;;;;;;5141937;27;20263;-58
2022/01/10 10:13:07;;;;;;;26.88;15.73;;;;;;;;;;5138283;27;20417;-59
2022/01/10 10:15:35;;;;;;;20.20;15.10;;;;;;;;;;5114143;28;20200;-57
2022/01/10 10:18:03;;;;;;;21.60;14.27;;;;;;;;;;5126995;27;20438;-59
2022/01/10 10:20:33;;;;;;;23.27;14.57;;;;;;;;;;5105271;28;20464;-59
2022/01/10 10:23:00;;;;;;;20.35;14.57;;;;;;;;;;5106080;28;20210;-58
2022/01/10 10:25:26;;;;;;;21.20;14.38;;;;;;;;;;5106748;28;20249;-59
2022/01/10 10:27:52;;;;;;;20.20;14.82;;;;;;;;;;5105540;28;20371;-59
2022/01/10 10:30:20;;;;;;;20.80;14.07;;;;;;;;;;5106405;28;20211;-59
2022/01/10 10:32:47;;;;;;;16.15;12.57;;;;;;;;;;5126869;27;20222;-58
2022/01/10 10:35:15;;;;;;;16.52;12.65;;;;;;;;;;5130311;27;20434;-58
2022/01/10 10:37:44;;;;;;;18.38;10.82;;;;;;;;;;5106205;28;20265;-58
2022/01/10 10:40:11;;;;;;;19.80;10.23;;;;;;;;;;5109132;28;20521;-58
2022/01/10 10:42:39;;;;;;;20.08;10.63;;;;;;;;;;5113412;27;20183;-57
2022/01/10 10:45:06;;;;;;;13.27;10.38;;;;;;;;;;5123648;27;20321;-57
2022/01/10 10:47:34;;;;;;;19.58;11.65;;;;;;;;;;5116051;28;20207;-58
2022/01/10 10:50:00;;;;;;;17.15;11.77;;;;;;;;;;5122076;28;20207;-59
2022/01/10 10:52:31;;;;;;;18.52;11.63;;;;;;;;;;5102887;28;20228;-59
2022/01/10 10:55:01;;;;;;;15.73;10.27;;;;;;;;;;5106373;28;20203;-59
2022/01/10 10:57:28;;;;;;;16.42;10.15;;;;;;;;;;5104385;28;20204;-58
2022/01/10 10:59:55;;;;;;;18.92;10.35;;;;;;;;;;5105724;28;20203;-59
2022/01/10 11:02:22;;;;;;;17.63;9.90;;;;;;;;;;5100270;28;20184;-62
2022/01/10 11:04:48;;;;;;;19.55;10.75;;;;;;;;;;5102506;28;20299;-59
2022/01/10 11:07:16;;;;;;;13.93;9.85;;;;;;;;;;5101866;28;20204;-59
2022/01/10 11:09:43;;;;;;;16.02;9.35;;;;;;;;;;5102236;28;20214;-60
2022/01/10 11:12:13;;;;;;;16.10;9.50;;;;;;;;;;5123356;28;20211;-60
2022/01/10 11:14:41;;;;;;;20.83;10.05;;;;;;;;;;5115498;27;20200;-60
2022/01/10 11:17:07;;;;;;;14.57;9.75;;;;;;;;;;5109055;28;20211;-58
2022/01/10 11:19:34;;;;;;;16.27;9.20;;;;;;;;;;5112506;28;20523;-59
2022/01/10 11:22:06;;;;;;;18.92;9.90;;;;;;;;;;5112694;28;20207;-60
2022/01/10 11:24:43;;;;;;;17.48;9.52;;;;;;;;;;5100485;28;20208;-60
2022/01/10 11:27:27;;;;;;;18.45;9.73;;;;;;;;;;5114488;28;20282;-61
2022/01/10 11:29:57;;;;;;;11.10;7.40;;;;;;;;;;5106109;28;20506;-60
2022/01/10 11:32:49;;;;;;;20.45;8.50;;;;;;;;;;5106825;28;20218;-60
2022/01/10 11:35:19;;;;;;;14.18;8.93;;;;;;;;;;5100212;28;20219;-61
2022/01/10 11:37:46;;;;;;;13.15;8.63;;;;;;;;;;5116108;28;20257;-59
2022/01/10 11:40:13;;;;;;;13.93;8.55;;;;;;;;;;5118581;28;20252;-61
2022/01/10 11:42:45;;;;;;;12.63;7.60;;;;;;;;;;5119665;28;20456;-59
2022/01/10 11:45:16;;;;;;;12.18;8.00;;;;;;;;;;5118742;28;20218;-61
2022/01/10 11:48:01;;;;;;;9.95;7.45;;;;;;;;;;5112748;28;20543;-60
2022/01/10 11:50:27;;;;;;;13.18;7.30;;;;;;;;;;5117528;28;20245;-59
2022/01/10 11:52:55;;;;;;;13.15;9.00;;;;;;;;;;5117574;28;20222;-59
2022/01/10 11:55:30;;;;;;;15.63;9.52;;;;;;;;;;5117193;28;20211;-59
2022/01/10 11:58:06;;;;;;;18.23;10.75;;;;;;;;;;5114251;28;20423;-59
2022/01/10 12:00:36;;;;;;;15.68;9.40;;;;;;;;;;5103843;28;20224;-61
2022/01/10 12:03:03;;;;;;;10.18;8.25;;;;;;;;;;5100884;28;20475;-60
2022/01/10 12:05:31;;;;;;;10.95;8.02;;;;;;;;;;5100862;28;20426;-61
2022/01/10 12:07:57;;;;;;;9.20;7.05;;;;;;;;;;5104726;28;20218;-60
2022/01/10 12:10:24;;;;;;;13.15;8.10;;;;;;;;;;5117703;28;20214;-54
2022/01/10 12:12:54;;;;;;;15.73;8.90;;;;;;;;;;5118277;27;20218;-55
2022/01/10 12:15:23;;;;;;;19.38;8.93;;;;;;;;;;5137160;27;20198;-55
2022/01/10 12:17:50;;;;;;;17.10;8.98;;;;;;;;;;5116222;27;20407;-54
2022/01/10 12:20:16;;;;;;;18.58;10.32;;;;;;;;;;5115528;28;20526;-53
2022/01/10 12:22:43;;;;;;;19.80;9.43;;;;;;;;;;5103578;28;20210;-54
2022/01/10 12:25:09;;;;;;;12.45;8.65;;;;;;;;;;5116393;28;20550;-56
2022/01/10 12:27:36;;;;;;;18.73;9.38;;;;;;;;;;5116922;28;20207;-54
2022/01/10 12:30:04;;;;;;;18.63;10.25;;;;;;;;;;5116005;28;20278;-55
2022/01/10 12:32:35;;;;;;;18.88;10.43;;;;;;;;;;5116677;28;20223;-54
2022/01/10 12:35:01;;;;;;;25.55;12.02;;;;;;;;;;5116632;28;20206;-55
2022/01/10 12:37:29;;;;;;;18.95;11.10;;;;;;;;;;5116932;28;20211;-54
2022/01/10 12:39:56;;;;;;;20.85;11.18;;;;;;;;;;5116288;28;20226;-55
2022/01/10 12:42:26;;;;;;;17.10;9.93;;;;;;;;;;5097292;28;20204;-54
2022/01/10 12:44:52;;;;;;;13.38;9.30;;;;;;;;;;5095785;28;20298;-54
2022/01/10 12:47:19;;;;;;;16.40;10.00;;;;;;;;;;5096348;28;20207;-54
2022/01/10 12:49:48;;;;;;;17.77;9.27;;;;;;;;;;5113889;28;20205;-56
2022/01/10 12:52:15;;;;;;;17.80;9.40;;;;;;;;;;5116633;28;20472;-55
2022/01/10 12:54:41;;;;;;;22.50;9.25;;;;;;;;;;5114071;28;20230;-55
2022/01/10 12:57:08;;;;;;;16.17;8.98;;;;;;;;;;5115834;28;20519;-58
2022/01/10 12:59:36;;;;;;;12.68;8.38;;;;;;;;;;5116856;28;20243;-56
2022/01/10 13:02:06;;;;;;;20.10;8.82;;;;;;;;;;5111778;28;20200;-54
2022/01/10 13:04:34;;;;;;;21.77;9.45;;;;;;;;;;5106176;28;20571;-55
2022/01/10 13:07:04;;;;;;;18.83;9.40;;;;;;;;;;5106474;28;20432;-56
2022/01/10 13:09:31;;;;;;;18.67;9.70;;;;;;;;;;5095811;28;20236;-54
2022/01/10 13:12:13;;;;;;;15.80;8.25;;;;;;;;;;5109136;28;20211;-55
2022/01/10 13:14:40;;;;;;;14.48;9.15;;;;;;;;;;5132632;28;20273;-55
2022/01/10 13:17:08;;;;;;;16.00;11.77;;;;;;;;;;5136702;28;20541;-54
2022/01/10 13:19:40;;;;;;;16.98;9.75;;;;;;;;;;5136821;27;20258;-55
2022/01/10 13:22:11;;;;;;;17.33;9.43;;;;;;;;;;5114055;28;20239;-54
2022/01/10 13:24:45;;;;;;;16.88;8.85;;;;;;;;;;5108786;28;20214;-53
2022/01/10 13:27:16;;;;;;;21.30;9.10;;;;;;;;;;5116407;28;20207;-56
2022/01/10 13:29:43;;;;;;;10.63;8.20;;;;;;;;;;5116018;28;20242;-56
2022/01/10 13:32:20;;;;;;;13.77;9.45;;;;;;;;;;5114967;28;20240;-54
2022/01/10 13:34:49;;;;;;;15.27;9.05;;;;;;;;;;5115324;28;20206;-54
2022/01/10 13:37:27;;;;;;;15.77;9.70;;;;;;;;;;5116018;28;20207;-55
2022/01/10 13:39:59;;;;;;;13.38;9.32;;;;;;;;;;5100124;28;20524;-54
2022/01/10 13:42:26;;;;;;;13.27;9.38;;;;;;;;;;5100865;28;20214;-54
2022/01/10 13:44:59;;;;;;;16.30;8.98;;;;;;;;;;5115706;28;20223;-54
2022/01/10 13:47:26;;;;;;;14.40;8.43;;;;;;;;;;5116280;28;20210;-55
2022/01/10 13:49:53;;;;;;;13.45;8.77;;;;;;;;;;5115901;28;20510;-55
2022/01/10 13:52:21;;;;;;;14.57;9.07;;;;;;;;;;5115493;28;20211;-53
2022/01/10 13:54:47;;;;;;;20.77;9.43;;;;;;;;;;5095725;28;20372;-53
2022/01/10 13:57:14;;;;;;;17.85;8.57;;;;;;;;;;5095228;28;20207;-55
2022/01/10 13:59:41;;;;;;;12.75;7.78;;;;;;;;;;5095415;28;20286;-57
2022/01/10 14:02:09;;;;;;;16.38;8.85;;;;;;;;;;5095108;28;20214;-57
2022/01/10 14:04:35;;;;;;;15.65;8.25;;;;;;;;;;5110781;28;20256;-54
2022/01/10 14:07:06;;;;;;;13.55;9.02;;;;;;;;;;5119868;28;20230;-55
2022/01/10 14:09:35;;;;;;;14.77;9.30;;;;;;;;;;5119781;28;20207;-54
2022/01/10 14:12:03;;;;;;;16.25;8.93;;;;;;;;;;5119597;28;20482;-54
2022/01/10 14:14:29;;;;;;;15.35;8.68;;;;;;;;;;5122852;27;20241;-55
2022/01/10 14:16:57;;;;;;;18.92;10.43;;;;;;;;;;5117946;27;20221;-54
2022/01/10 14:19:24;;;;;;;17.40;9.75;;;;;;;;;;5098450;28;20216;-55
2022/01/10 14:21:50;;;;;;;18.35;9.90;;;;;;;;;;5098879;28;20235;-56
2022/01/10 14:24:17;;;;;;;15.80;9.35;;;;;;;;;;5102907;28;20203;-54
2022/01/10 14:26:46;;;;;;;13.13;9.20;;;;;;;;;;5119070;28;20662;-54
2022/01/10 14:29:13;;;;;;;17.90;9.02;;;;;;;;;;5118572;28;20546;-54
2022/01/10 14:31:39;;;;;;;21.50;9.88;;;;;;;;;;5113417;27;20225;-54